createdAt,value
2022-08-09T00:01:54.352Z,100.00
2022-08-09T00:04:34.111Z,100.00
2022-08-09T00:07:07.655Z,100.00
2022-08-09T00:09:40.405Z,100.00
2022-08-09T00:12:22.525Z,100.00
2022-08-09T00:14:56.627Z,100.00
2022-08-09T00:18:05.698Z,100.00
2022-08-09T00:20:15.865Z,100.00
2022-08-09T00:22:47.264Z,100.00
2022-08-09T00:25:23.410Z,100.00
2022-08-09T00:28:01.210Z,100.00
2022-08-09T00:30:33.473Z,100.00
2022-08-09T00:33:02.590Z,100.00
2022-08-09T00:35:42.954Z,100.00
2022-08-09T00:38:17.234Z,100.00
2022-08-09T00:40:52.521Z,100.00
2022-08-09T00:44:10.126Z,100.00
2022-08-09T00:46:28.456Z,100.00
2022-08-09T00:49:01.891Z,100.00
2022-08-09T00:51:33.855Z,100.00
2022-08-09T00:54:03.165Z,100.00
2022-08-09T00:56:32.041Z,100.00
2022-08-09T00:59:00.875Z,100.00
2022-08-09T01:01:44.640Z,100.00
2022-08-09T01:04:20.277Z,100.00
2022-08-09T01:07:18.144Z,100.00
2022-08-09T01:10:07.536Z,100.00
2022-08-09T01:12:45.900Z,100.00
2022-08-09T01:15:20.878Z,100.00
2022-08-09T01:18:14.197Z,100.00
2022-08-09T01:21:20.834Z,100.00
2022-08-09T01:24:19.969Z,100.00
2022-08-09T01:27:10.005Z,100.00
2022-08-09T01:30:06.509Z,100.00
2022-08-09T01:32:45.430Z,100.00
2022-08-09T01:35:37.322Z,100.00
2022-08-09T01:38:20.839Z,100.00
2022-08-09T01:41:05.217Z,100.00
2022-08-09T01:43:50.577Z,100.00
2022-08-09T01:46:29.252Z,100.00
2022-08-09T01:49:09.644Z,100.00
2022-08-09T01:51:53.148Z,100.00
2022-08-09T01:54:55.154Z,100.00
2022-08-09T01:57:40.381Z,100.00
2022-08-09T02:00:35.039Z,100.00
2022-08-09T02:03:13.621Z,100.00
2022-08-09T02:06:03.402Z,100.00
2022-08-09T02:08:57.160Z,100.00
2022-08-09T02:11:40.259Z,100.00
2022-08-09T02:14:25.164Z,100.00
2022-08-09T02:17:14.692Z,100.00
2022-08-09T02:19:45.776Z,100.00
2022-08-09T02:23:03.289Z,100.00
2022-08-09T02:25:42.402Z,100.00
2022-08-09T02:28:28.691Z,100.00
2022-08-09T02:31:12.533Z,100.00
2022-08-09T02:34:07.252Z,100.00
2022-08-09T02:36:36.323Z,100.00
2022-08-09T02:39:14.348Z,100.00
2022-08-09T02:41:55.022Z,100.00
2022-08-09T02:44:30.355Z,100.00
2022-08-09T02:47:05.165Z,100.00
2022-08-09T02:50:01.974Z,100.00
2022-08-09T02:52:44.073Z,100.00
2022-08-09T02:55:20.718Z,100.00
2022-08-09T02:58:00.287Z,100.00
2022-08-09T03:00:57.751Z,100.00
2022-08-09T03:04:13.273Z,100.00
2022-08-09T03:06:19.870Z,100.00
2022-08-09T03:08:52.920Z,100.00
2022-08-09T03:12:06.472Z,100.00
2022-08-09T03:14:14.662Z,100.00
2022-08-09T03:16:48.278Z,100.00
2022-08-09T03:19:58.790Z,100.00
2022-08-09T03:22:19.789Z,100.00
2022-08-09T03:25:05.830Z,100.00
2022-08-09T03:27:46.557Z,100.00
2022-08-09T03:30:23.648Z,100.00
2022-08-09T03:33:01.049Z,100.00
2022-08-09T03:36:13.715Z,100.00
2022-08-09T03:38:28.996Z,100.00
2022-08-09T03:40:59.475Z,100.00
2022-08-09T03:43:31.558Z,100.00
2022-08-09T03:46:20.712Z,100.00
2022-08-09T03:48:58.528Z,100.00
2022-08-09T03:51:56.332Z,100.00
2022-08-09T03:54:29.539Z,100.00
2022-08-09T03:57:04.525Z,100.00
2022-08-09T03:59:54.567Z,100.00
2022-08-09T04:02:28.301Z,100.00
2022-08-09T04:05:00.781Z,100.00
2022-08-09T04:07:47.010Z,100.00
2022-08-09T04:10:29.239Z,100.00
2022-08-09T04:13:03.926Z,100.00
2022-08-09T04:15:52.555Z,100.00
2022-08-09T04:18:24.895Z,100.00
2022-08-09T04:20:54.943Z,100.00
2022-08-09T04:23:25.019Z,100.00
2022-08-09T04:25:56.207Z,100.00
2022-08-09T04:28:33.526Z,100.00
2022-08-09T04:31:08.605Z,100.00
2022-08-09T04:33:52.865Z,100.00
2022-08-09T04:36:28.550Z,100.00
2022-08-09T04:39:00.609Z,99.50
2022-08-09T04:41:32.137Z,96.19
2022-08-09T04:44:10.956Z,97.06
2022-08-09T04:46:59.120Z,95.90
2022-08-09T04:49:53.049Z,93.97
2022-08-09T04:52:28.744Z,93.21
2022-08-09T04:55:02.386Z,86.91
2022-08-09T04:57:59.242Z,85.00
2022-08-09T05:00:23.394Z,85.69
2022-08-09T05:02:53.052Z,88.56
2022-08-09T05:05:31.934Z,87.12
2022-08-09T05:08:13.947Z,88.66
2022-08-09T05:10:44.419Z,88.87
2022-08-09T05:13:14.245Z,87.57
2022-08-09T05:15:48.183Z,87.10
2022-08-09T05:18:38.121Z,86.17
2022-08-09T05:21:20.804Z,84.92
2022-08-09T05:23:59.820Z,81.24
2022-08-09T05:26:33.851Z,80.03
2022-08-09T05:29:22.233Z,78.54
2022-08-09T05:31:56.098Z,80.69
2022-08-09T05:34:30.955Z,83.77
2022-08-09T05:37:06.503Z,85.87
2022-08-09T05:39:43.174Z,86.02
2022-08-09T05:42:17.661Z,86.19
2022-08-09T05:44:53.132Z,89.17
2022-08-09T05:47:27.021Z,85.74
2022-08-09T05:50:25.804Z,87.98
2022-08-09T05:52:53.628Z,90.28
2022-08-09T05:55:24.555Z,94.60
2022-08-09T05:57:57.604Z,93.73
2022-08-09T06:00:29.965Z,95.05
2022-08-09T06:03:00.284Z,96.20
2022-08-09T06:05:57.713Z,91.53
2022-08-09T06:08:24.271Z,86.21
2022-08-09T06:10:58.282Z,84.70
2022-08-09T06:13:34.061Z,83.12
2022-08-09T06:16:05.314Z,83.18
2022-08-09T06:18:35.156Z,87.06
2022-08-09T06:49:29.173Z,78.73
2022-08-09T06:52:08.881Z,81.30
2022-08-09T06:54:38.284Z,82.12
2022-08-09T06:57:08.511Z,82.80
2022-08-09T07:00:51.633Z,85.00
2022-08-09T07:02:29.461Z,83.60
2022-08-09T07:05:02.472Z,84.09
2022-08-09T07:07:58.900Z,84.71
2022-08-09T07:10:31.207Z,83.88
2022-08-09T07:13:18.698Z,85.34
2022-08-09T07:15:53.870Z,83.58
2022-08-09T07:18:41.878Z,83.00
2022-08-09T07:21:12.722Z,86.40
2022-08-09T07:23:56.342Z,84.85
2022-08-09T07:26:27.542Z,82.59
2022-08-09T07:29:09.349Z,82.63
2022-08-09T07:31:45.823Z,80.69
2022-08-09T07:34:20.852Z,81.07
2022-08-09T07:36:52.889Z,83.35
2022-08-09T07:39:40.278Z,79.73
2022-08-09T07:42:12.409Z,81.56
2022-08-09T07:44:51.779Z,82.89
2022-08-09T07:47:26.502Z,84.13
2022-08-09T07:50:07.567Z,83.26
2022-08-09T07:52:39.559Z,84.48
2022-08-09T07:55:12.848Z,88.40
2022-08-09T07:57:46.926Z,91.63
2022-08-09T08:00:35.695Z,92.57
2022-08-09T08:03:08.302Z,94.68
2022-08-09T08:05:57.652Z,95.71
2022-08-09T08:08:59.714Z,96.56
2022-08-09T08:12:24.746Z,98.91
2022-08-09T08:14:08.856Z,98.51
2022-08-09T08:16:39.619Z,95.82
2022-08-09T08:19:20.374Z,92.56
2022-08-09T08:21:53.437Z,90.48
2022-08-09T08:24:22.970Z,88.22
2022-08-09T08:26:56.225Z,89.67
2022-08-09T08:29:28.611Z,90.90
2022-08-09T08:32:09.412Z,89.72
2022-08-09T08:34:42.330Z,91.30
2022-08-09T08:37:15.574Z,91.58
2022-08-09T08:39:45.774Z,92.70
2022-08-09T08:42:16.761Z,93.25
2022-08-09T08:44:46.660Z,93.18
2022-08-09T08:47:17.087Z,93.76
2022-08-09T08:49:49.459Z,93.04
2022-08-09T08:55:15.161Z,92.88
2022-08-09T08:57:56.586Z,93.21
2022-08-09T09:00:35.013Z,93.55
2022-08-09T09:03:11.198Z,93.13
2022-08-09T09:05:58.346Z,92.29
2022-08-09T09:08:37.882Z,93.45
2022-08-09T09:11:13.920Z,95.63
2022-08-09T09:13:57.301Z,93.76
2022-08-09T09:16:32.604Z,92.93
2022-08-09T09:19:37.389Z,92.08
2022-08-09T09:22:11.466Z,91.84
2022-08-09T09:24:49.292Z,90.26
2022-08-09T09:28:04.011Z,90.89
2022-08-09T09:33:15.283Z,90.33
2022-08-09T09:36:11.619Z,89.77
2022-08-09T09:38:52.306Z,91.30
2022-08-09T09:41:33.125Z,90.90
2022-08-09T09:44:11.023Z,89.90
2022-08-09T09:46:52.281Z,89.72
2022-08-09T09:49:56.462Z,89.54
2022-08-09T09:52:16.320Z,89.36
2022-08-09T09:55:24.047Z,88.60
2022-08-09T09:58:16.664Z,86.85
2022-08-09T10:00:59.629Z,86.62
2022-08-09T10:03:57.368Z,84.42
2022-08-09T10:06:32.659Z,84.53
2022-08-09T10:09:11.839Z,86.25
2022-08-09T10:12:15.023Z,85.82
2022-08-09T10:14:54.246Z,85.89
2022-08-09T10:17:39.973Z,85.79
2022-08-09T10:20:27.287Z,83.94
2022-08-09T10:23:17.436Z,83.43
2022-08-09T10:26:06.553Z,84.64
2022-08-09T10:28:40.321Z,84.96
2022-08-09T10:34:08.149Z,85.56
2022-08-09T10:36:42.421Z,86.56
2022-08-09T10:39:18.268Z,85.52
2022-08-09T10:41:49.594Z,87.26
2022-08-09T10:44:23.021Z,88.65
2022-08-09T10:47:20.394Z,89.09
2022-08-09T10:51:04.804Z,86.99
2022-08-09T10:54:10.016Z,89.07
2022-08-09T10:56:44.867Z,90.35
2022-08-09T10:59:55.488Z,88.89
2022-08-09T11:03:10.880Z,90.23
2022-08-09T11:05:32.007Z,89.92
2022-08-09T11:08:47.939Z,88.94
2022-08-09T11:11:22.000Z,89.11
2022-08-09T11:14:46.538Z,88.65
2022-08-09T11:17:41.716Z,89.42
2022-08-09T11:20:22.668Z,88.77
2022-08-09T11:22:55.499Z,88.85
2022-08-09T11:25:44.594Z,89.84
2022-08-09T11:28:38.776Z,89.82
2022-08-09T11:31:50.106Z,89.79
2022-08-09T11:34:44.299Z,89.26
2022-08-09T11:37:40.585Z,91.38
2022-08-09T11:40:17.878Z,90.62
2022-08-09T11:42:53.862Z,91.94
2022-08-09T11:45:42.384Z,89.69
2022-08-09T11:48:28.881Z,90.18
2022-08-09T11:52:57.091Z,89.09
2022-08-09T11:53:58.623Z,89.92
2022-08-09T11:56:42.832Z,89.78
2022-08-09T11:59:30.650Z,89.03
2022-08-09T12:02:34.126Z,88.39
2022-08-09T12:04:58.207Z,87.91
2022-08-09T12:07:41.421Z,88.12
2022-08-09T12:10:14.083Z,89.44
2022-08-09T12:13:03.427Z,89.19
2022-08-09T12:15:50.084Z,87.71
2022-08-09T12:18:29.740Z,90.06
2022-08-09T12:21:02.750Z,88.99
2022-08-09T12:23:56.428Z,91.34
2022-08-09T12:26:26.607Z,91.19
2022-08-09T12:29:13.080Z,92.20
2022-08-09T12:32:01.649Z,92.38
2022-08-09T12:34:43.504Z,90.79
2022-08-09T12:37:23.777Z,91.67
2022-08-09T12:40:07.894Z,89.96
2022-08-09T12:42:44.070Z,88.76
2022-08-09T12:45:34.440Z,88.14
2022-08-09T12:48:05.664Z,89.60
2022-08-09T12:50:38.687Z,89.53
2022-08-09T12:53:37.034Z,90.13
2022-08-09T12:56:36.893Z,90.15
2022-08-09T12:59:21.460Z,87.78
2022-08-09T13:02:00.311Z,86.82
2022-08-09T13:04:36.442Z,87.36
2022-08-09T13:07:15.259Z,87.04
2022-08-09T13:09:55.951Z,88.32
2022-08-09T13:12:32.329Z,88.45
2022-08-09T13:15:09.768Z,89.70
2022-08-09T13:18:03.567Z,90.02
2022-08-09T13:21:03.983Z,90.82
2022-08-09T13:24:06.936Z,91.55
2022-08-09T13:26:40.864Z,92.50
2022-08-09T13:29:18.077Z,94.34
2022-08-09T13:32:16.784Z,94.58
2022-08-09T13:34:49.415Z,94.40
2022-08-09T13:37:50.501Z,94.15
2022-08-09T13:41:46.764Z,95.60
2022-08-09T13:43:05.213Z,96.14
2022-08-09T13:46:42.349Z,95.08
2022-08-09T13:48:30.051Z,95.87
2022-08-09T13:50:59.817Z,96.37
2022-08-09T13:53:43.500Z,96.78
2022-08-09T13:56:14.091Z,94.81
2022-08-09T13:58:43.723Z,95.43
2022-08-09T14:01:56.443Z,94.05
2022-08-09T14:04:11.137Z,95.60
2022-08-09T14:06:41.426Z,94.53
2022-08-09T14:09:16.439Z,94.94
2022-08-09T14:11:47.804Z,94.55
2022-08-09T14:14:26.098Z,93.53
2022-08-09T14:16:57.810Z,93.84
2022-08-09T14:19:30.260Z,95.06
2022-08-09T14:22:03.383Z,95.52
2022-08-09T14:24:33.727Z,94.50
2022-08-09T14:27:03.460Z,95.09
2022-08-09T14:30:35.527Z,95.16
2022-08-09T14:32:39.720Z,94.93
2022-08-09T14:35:12.820Z,96.24
2022-08-09T14:38:02.688Z,97.80
2022-08-09T14:41:01.753Z,97.19
2022-08-09T14:43:24.752Z,97.73
2022-08-09T14:46:55.000Z,98.63
2022-08-09T14:49:04.907Z,98.89
2022-08-09T14:51:42.398Z,98.73
2022-08-09T14:54:14.942Z,99.05
2022-08-09T14:56:58.979Z,100.00
2022-08-09T14:59:29.653Z,100.00
2022-08-09T15:02:00.413Z,100.00
2022-08-09T15:04:29.947Z,100.00
2022-08-09T15:07:00.068Z,100.00
2022-08-09T15:10:03.417Z,100.00
2022-08-09T15:12:21.695Z,100.00
2022-08-09T15:14:52.867Z,100.00
2022-08-09T15:17:22.346Z,100.00
2022-08-09T15:20:02.321Z,100.00
2022-08-09T15:22:33.218Z,100.00
2022-08-09T15:25:04.078Z,100.00
2022-08-09T15:27:47.836Z,100.00
2022-08-09T15:30:48.348Z,100.00
2022-08-09T15:33:15.213Z,100.00
2022-08-09T15:36:02.007Z,100.00
2022-08-09T15:38:32.109Z,100.00
2022-08-09T15:41:09.659Z,100.00
2022-08-09T15:43:43.235Z,100.00
2022-08-09T15:46:32.176Z,100.00
2022-08-09T15:49:22.196Z,100.00
2022-08-09T15:52:03.422Z,100.00
2022-08-09T15:54:49.073Z,100.00
2022-08-09T15:57:35.502Z,100.00
2022-08-09T16:00:24.675Z,100.00
2022-08-09T16:02:57.218Z,100.00
2022-08-09T16:05:47.313Z,100.00
2022-08-09T16:08:29.829Z,100.00
2022-08-09T16:11:02.825Z,100.00
2022-08-09T16:14:03.621Z,100.00
2022-08-09T16:16:26.288Z,100.00
2022-08-09T16:18:58.002Z,100.00
2022-08-09T16:21:31.763Z,100.00
2022-08-09T16:24:20.057Z,100.00
2022-08-09T16:26:56.715Z,100.00
2022-08-09T16:29:36.939Z,100.00
2022-08-09T16:32:18.082Z,100.00
2022-08-09T16:34:56.433Z,100.00
2022-08-09T16:37:55.990Z,100.00
2022-08-09T16:40:29.931Z,100.00
2022-08-09T16:43:09.017Z,100.00
2022-08-09T16:45:44.036Z,100.00
2022-08-09T16:48:39.216Z,100.00
2022-08-09T16:51:08.374Z,100.00
2022-08-09T16:54:25.227Z,100.00
2022-08-09T16:56:49.272Z,100.00
2022-08-09T16:59:19.634Z,100.00
2022-08-09T17:01:52.836Z,100.00
2022-08-09T17:04:28.202Z,100.00
2022-08-09T17:08:45.640Z,100.00
2022-08-09T17:09:51.349Z,100.00
2022-08-09T17:12:20.680Z,100.00
2022-08-09T17:14:54.897Z,100.00
2022-08-09T17:17:28.434Z,100.00
2022-08-09T17:20:28.415Z,100.00
2022-08-09T17:22:53.221Z,100.00
2022-08-09T17:25:23.870Z,100.00
2022-08-09T17:27:56.034Z,100.00
2022-08-09T17:30:30.688Z,100.00
2022-08-09T17:33:22.042Z,100.00
2022-08-09T17:35:52.887Z,100.00
2022-08-09T17:38:30.914Z,100.00
2022-08-09T17:41:04.336Z,100.00
2022-08-09T17:43:37.451Z,100.00
2022-08-09T17:46:09.762Z,100.00
2022-08-09T17:48:46.610Z,100.00
2022-08-09T17:51:23.307Z,100.00
2022-08-09T17:53:55.891Z,100.00
2022-08-09T17:56:35.409Z,100.00
2022-08-09T17:59:09.527Z,100.00
2022-08-09T18:02:06.419Z,100.00
2022-08-09T18:04:34.003Z,100.00
2022-08-09T18:07:07.846Z,100.00
2022-08-09T18:09:41.864Z,100.00
2022-08-09T18:12:19.984Z,100.00
2022-08-09T18:14:56.662Z,100.00
2022-08-09T18:18:02.628Z,100.00
2022-08-09T18:20:59.056Z,100.00
2022-08-09T18:23:14.150Z,100.00
2022-08-09T18:25:58.686Z,100.00
2022-08-09T18:30:35.164Z,100.00
2022-08-09T18:31:25.009Z,100.00
2022-08-09T18:34:11.077Z,100.00
2022-08-09T18:36:40.930Z,100.00
2022-08-09T18:39:16.991Z,100.00
2022-08-09T18:41:53.091Z,100.00
2022-08-09T18:44:26.009Z,100.00
2022-08-09T18:47:06.318Z,100.00
2022-08-09T18:49:46.186Z,100.00
2022-08-09T18:52:28.670Z,100.00
2022-08-09T18:55:06.260Z,100.00
2022-08-09T18:57:44.839Z,100.00
2022-08-09T19:00:19.976Z,100.00
2022-08-09T19:02:54.075Z,100.00
2022-08-09T19:05:48.701Z,100.00
2022-08-09T19:08:18.570Z,100.00
2022-08-09T19:10:50.764Z,100.00
2022-08-09T19:13:38.263Z,100.00
2022-08-09T19:16:21.018Z,100.00
2022-08-09T19:18:51.045Z,100.00
2022-08-09T19:21:47.890Z,100.00
2022-08-09T19:24:39.489Z,100.00
2022-08-09T19:27:01.319Z,100.00
2022-08-09T19:29:30.778Z,100.00
2022-08-09T19:32:20.280Z,100.00
2022-08-09T19:34:53.984Z,100.00
2022-08-09T19:37:23.561Z,100.00
2022-08-09T19:40:05.084Z,100.00
2022-08-09T19:42:35.790Z,100.00
2022-08-09T19:45:09.376Z,100.00
2022-08-09T19:47:39.326Z,100.00
2022-08-09T19:50:51.324Z,100.00
2022-08-09T19:52:59.065Z,100.00
2022-08-09T19:55:39.102Z,100.00
2022-08-09T19:58:29.614Z,100.00
2022-08-09T20:01:00.249Z,100.00
2022-08-09T20:04:11.081Z,100.00
2022-08-09T20:06:23.241Z,100.00
2022-08-09T20:08:56.899Z,100.00
2022-08-09T20:11:43.409Z,100.00
2022-08-09T20:14:18.034Z,100.00
2022-08-09T20:16:48.994Z,100.00
2022-08-09T20:19:47.595Z,100.00
2022-08-09T20:22:10.216Z,100.00
2022-08-09T20:24:53.233Z,100.00
2022-08-09T20:27:24.185Z,100.00
2022-08-09T20:30:00.117Z,100.00
2022-08-09T20:32:33.651Z,100.00
2022-08-09T20:35:04.038Z,100.00
2022-08-09T20:38:19.578Z,100.00
2022-08-09T20:40:27.898Z,100.00
2022-08-09T20:43:00.329Z,100.00
2022-08-09T20:46:00.316Z,100.00
2022-08-09T20:48:39.890Z,100.00
2022-08-09T20:51:19.133Z,100.00
2022-08-09T20:53:49.213Z,100.00
2022-08-09T20:56:20.677Z,100.00
2022-08-09T20:58:57.854Z,100.00
2022-08-09T21:01:35.222Z,100.00
2022-08-09T21:05:51.412Z,100.00
2022-08-09T21:07:14.011Z,100.00
2022-08-09T21:09:56.836Z,100.00
2022-08-09T21:15:23.859Z,100.00
2022-08-09T21:18:22.454Z,100.00
2022-08-09T21:20:56.030Z,100.00
2022-08-09T21:23:51.377Z,100.00
2022-08-09T21:26:16.564Z,100.00
2022-08-09T21:28:55.619Z,100.00
2022-08-09T21:31:48.828Z,100.00
2022-08-09T21:34:20.969Z,100.00
2022-08-09T21:36:58.762Z,100.00
2022-08-09T21:39:41.732Z,100.00
2022-08-09T21:42:15.247Z,100.00
2022-08-09T21:44:45.399Z,100.00
2022-08-09T21:47:18.058Z,100.00
2022-08-09T21:49:49.128Z,100.00
2022-08-09T21:52:20.941Z,100.00
2022-08-09T21:55:03.534Z,100.00
2022-08-09T21:57:59.504Z,100.00
2022-08-09T22:00:32.304Z,100.00
2022-08-09T22:03:06.607Z,100.00
2022-08-09T22:05:42.451Z,100.00
2022-08-09T22:08:17.424Z,100.00
2022-08-09T22:11:50.025Z,100.00
2022-08-09T22:13:43.278Z,100.00
2022-08-09T22:16:13.552Z,100.00
2022-08-09T22:18:54.356Z,100.00
2022-08-09T22:21:45.407Z,100.00
2022-08-09T22:24:24.045Z,100.00
2022-08-09T22:26:55.706Z,100.00
2022-08-09T22:29:38.520Z,100.00
2022-08-09T22:32:29.743Z,100.00
2022-08-09T22:35:05.837Z,100.00
2022-08-09T22:37:40.526Z,100.00
2022-08-09T22:40:19.932Z,100.00
2022-08-09T22:42:50.339Z,100.00
2022-08-09T22:48:15.375Z,100.00
2022-08-09T22:48:19.810Z,100.00
2022-08-09T22:50:59.561Z,100.00
2022-08-09T22:53:44.201Z,100.00
2022-08-09T22:56:33.766Z,100.00
2022-08-09T22:59:05.958Z,100.00
2022-08-09T23:01:55.290Z,100.00
2022-08-09T23:04:25.725Z,100.00
2022-08-09T23:07:16.318Z,100.00
2022-08-09T23:09:46.292Z,100.00
2022-08-09T23:12:16.162Z,100.00
2022-08-09T23:14:45.853Z,100.00
2022-08-09T23:17:16.292Z,100.00
2022-08-09T23:20:00.654Z,100.00
2022-08-09T23:22:37.113Z,100.00
2022-08-09T23:25:07.970Z,100.00
2022-08-09T23:27:37.336Z,100.00
2022-08-09T23:30:26.951Z,100.00
2022-08-09T23:32:56.683Z,100.00
2022-08-09T23:35:26.320Z,100.00
2022-08-09T23:37:55.772Z,100.00
2022-08-09T23:40:25.366Z,100.00
2022-08-09T23:42:54.905Z,100.00
2022-08-09T23:45:36.829Z,100.00
2022-08-09T23:48:09.101Z,100.00
2022-08-09T23:50:38.927Z,100.00
2022-08-09T23:53:10.378Z,100.00
2022-08-09T23:55:48.360Z,100.00
2022-08-09T23:58:27.706Z,100.00
